Weather at Mostar International Airport

Public forecast

Using degrees Celsius for public forecast. Weather courtesy of forecast.io.

Current aviation weather report (METAR) for Mostar International Airport

2024/05/19 20:00 (retrieved 25 minutes ago)

LQMO 192000Z 13003KT 060V170 9999 -RA FEW050 21/18 Q1010

Aviation forecast (TAF) for Mostar International Airport

2024/05/19 18:08 (retrieved 2 hours ago)

TAF LQMO 191700Z 1918/2018 15005KT 9999 FEW045 TX28/2014Z TN15/2004Z PROB30 TEMPO 1918/1923 VRB15KT TSRA FEW035CB BKN045 PROB30 1923/2004 2000 BCFG TEMPO 2010/2016 21010KT